Stations météo

réclame
Mon MeteoGroup
Lluc, Espagne (8304): Température de l'air & dewpoint: 05.12.2017 06:00:00 - 11.12.2017 06:00:00 (CET)Lluc, Espagne (8304): Vitesse du vent & gusts: 05.12.2017 06:00:00 - 11.12.2017 06:00:00 (CET)Lluc, Espagne (8304): Direction du vent: 05.12.2017 06:00:00 - 11.12.2017 06:00:00 (CET)Lluc, Espagne (8304): Quantités de précipitations: 05.12.2017 06:00:00 - 11.12.2017 06:00:00 (CET)
Date & Time tt [°C] td [°C] ff [km/h] ff [knt] fx [km/h] fx [knt] dd rr [mm]
11.12.2017 06:00:00 12,0 6,5 5 3 27 15 SSE 0,0
11.12.2017 05:00:00 12,2 6,1 7 4 49 26 SSE 0,0
11.12.2017 04:00:00 12,5 5,0 2 1 49 26 WNW 0,0
11.12.2017 03:00:00 12,9 5,3 6 3 37 20 WSW 0,0
11.12.2017 02:00:00 12,5 5,6 5 3 21 12 E 0,0
11.12.2017 01:00:00 12,3 6,5 3 2 29 16 SE -
11.12.2017 00:00:00 12,2 4,5 4 2 44 24 SSE 0,0
10.12.2017 23:00:00 12,1 5,0 1 1 21 11 WSW 0,0
10.12.2017 22:00:00 12,0 4,5 7 4 31 17 ESE 0,0
10.12.2017 21:00:00 12,4 2,9 4 2 27 15 WSW 0,0
10.12.2017 20:00:00 13,0 2,5 5 3 48 26 NW 0,0
10.12.2017 19:00:00 12,1 2,3 5 3 46 25 SSW -
10.12.2017 18:00:00 12,3 3,9 12 6 44 24 SW 0,0
10.12.2017 17:00:00 12,3 4,8 8 5 39 21 SW 0,0
10.12.2017 16:00:00 12,3 5,9 3 2 26 14 SW 0,0
10.12.2017 15:00:00 12,7 6,1 3 2 33 18 SSW 0,0
10.12.2017 14:00:00 13,2 6,2 5 3 31 17 S 0,0
10.12.2017 13:00:00 13,9 7,1 1 0 26 14 S -
10.12.2017 12:00:00 13,7 6,5 4 2 29 16 S 0,0
10.12.2017 11:00:00 13,5 7,0 3 1 26 14 WSW 0,0
10.12.2017 10:00:00 12,5 7,6 0 0 12 6 SW 0,0
10.12.2017 09:00:00 11,6 7,6 8 4 24 13 WSW 0,0
10.12.2017 08:00:00 9,1 6,5 1 0 20 11 W 0,0
10.12.2017 07:00:00 9,3 5,5 2 1 23 12 ENE -
10.12.2017 06:00:00 10,2 5,8 7 4 31 17 WSW 0,0
10.12.2017 05:00:00 7,3 4,6 2 1 14 7 SW 0,0
10.12.2017 04:00:00 9,3 5,1 2 1 21 11 E 0,0
10.12.2017 03:00:00 8,4 4,5 6 3 24 13 E 0,0
10.12.2017 02:00:00 7,2 3,0 1 1 22 12 WSW 0,0
10.12.2017 01:00:00 7,7 4,3 5 3 17 9 SSE -
10.12.2017 00:00:00 6,2 2,5 0 0 22 12 ENE 0,0
09.12.2017 23:00:00 5,0 2,5 1 0 11 6 WNW 0,0
09.12.2017 22:00:00 4,4 1,5 0 0 19 10 W 0,0
09.12.2017 21:00:00 4,7 1,3 3 1 13 7 ENE 0,0
09.12.2017 20:00:00 5,1 1,9 2 1 24 13 SSE 0,0
09.12.2017 19:00:00 4,9 1,9 9 5 25 13 S -
09.12.2017 18:00:00 5,6 3,0 6 3 21 12 S 0,0
09.12.2017 17:00:00 5,6 3,6 5 3 18 10 S 0,0
09.12.2017 16:00:00 5,6 3,4 5 3 18 10 SE 0,0
09.12.2017 15:00:00 5,7 3,4 5 3 21 11 SSE 0,0
09.12.2017 14:00:00 6,0 3,6 7 4 24 13 SE 0,0
09.12.2017 13:00:00 6,2 3,9 7 4 26 14 SSE -
09.12.2017 12:00:00 6,1 4,1 6 3 25 13 SSE 0,0
09.12.2017 11:00:00 6,8 4,5 7 4 19 11 ESE 0,1
09.12.2017 10:00:00 8,3 3,8 4 2 15 8 ENE 0,0
09.12.2017 09:00:00 7,7 3,4 0 0 10 5 S 0,0
09.12.2017 08:00:00 7,5 2,9 3 1 20 11 S 0,0
09.12.2017 07:00:00 8,0 2,3 5 3 28 15 SSE -
09.12.2017 06:00:00 8,3 1,3 5 3 32 17 SSE 0,0
09.12.2017 05:00:00 8,8 2,3 5 3 23 12 SSE 0,0
09.12.2017 04:00:00 8,5 1,3 7 4 28 15 SE 0,0
09.12.2017 03:00:00 8,9 4,6 5 3 18 10 SSE 0,0
09.12.2017 02:00:00 7,9 5,3 0 0 13 7 S 0,0
09.12.2017 01:00:00 7,8 5,6 1 1 10 5 E -
09.12.2017 00:00:00 8,7 6,1 1 1 8 5 SSE 0,0
08.12.2017 23:00:00 9,3 5,8 0 0 12 6 SE 0,0
08.12.2017 22:00:00 10,1 5,5 3 2 16 9 S 0,0
08.12.2017 21:00:00 9,8 4,8 4 2 17 9 SE 0,0
08.12.2017 20:00:00 8,4 3,6 3 1 19 10 SSE 0,0
08.12.2017 19:00:00 6,3 3,0 0 0 4 2 E -
08.12.2017 18:00:00 7,5 3,2 0 0 6 3 N 0,0
08.12.2017 17:00:00 9,6 2,5 2 1 12 6 SSE 0,0
08.12.2017 16:00:00 11,0 2,1 2 1 11 6 SSE 0,0
08.12.2017 15:00:00 12,4 0,4 1 1 11 6 S 0,0
08.12.2017 14:00:00 13,7 0,4 1 0 16 8 S 0,0
08.12.2017 13:00:00 13,8 2,3 1 1 9 5 S -
08.12.2017 12:00:00 11,5 5,1 0 0 7 4 ESE 0,0
08.12.2017 11:00:00 9,4 7,6 0 0 0 0 N 0,0
08.12.2017 10:00:00 5,5 3,9 0 0 6 3 N 0,0
08.12.2017 09:00:00 1,8 0,4 0 0 - - N -
08.12.2017 08:00:00 0,1 -1,4 0 0 4 2 N 0,0
08.12.2017 07:00:00 -0,2 -1,7 0 0 0 0 N -
08.12.2017 06:00:00 0,0 -1,4 0 0 0 0 N 0,0
08.12.2017 05:00:00 0,2 -1,2 0 0 0 0 N 0,0
08.12.2017 04:00:00 0,5 -1,2 0 0 0 0 N 0,0
08.12.2017 03:00:00 1,4 -0,3 0 0 0 0 N 0,0
08.12.2017 02:00:00 2,1 0,4 0 0 4 2 N 0,0
08.12.2017 01:00:00 2,6 1,1 0 0 8 4 NNE -
08.12.2017 00:00:00 3,5 1,5 0 0 18 10 SSW 0,0
07.12.2017 23:00:00 5,1 3,0 2 1 13 7 SE 0,0
07.12.2017 22:00:00 5,9 3,6 0 0 21 11 SSE 0,0
07.12.2017 21:00:00 6,3 3,2 0 0 18 10 SW 0,0
07.12.2017 20:00:00 8,8 3,9 5 3 21 12 SSE 0,0
07.12.2017 19:00:00 8,3 4,5 4 2 19 10 SE -
07.12.2017 18:00:00 7,1 4,1 0 0 13 7 E 0,0
07.12.2017 17:00:00 8,9 4,1 3 2 15 8 S 0,0
07.12.2017 16:00:00 10,2 5,8 1 1 12 7 ESE 0,0
07.12.2017 15:00:00 11,5 5,8 2 1 13 7 SSE 0,0
07.12.2017 14:00:00 11,5 5,9 3 2 12 7 S 0,0
07.12.2017 13:00:00 11,4 5,0 4 2 14 8 ESE -
07.12.2017 12:00:00 11,5 3,8 3 2 14 7 SE 0,0
07.12.2017 11:00:00 13,1 3,9 4 2 25 13 SE 0,0
07.12.2017 10:00:00 10,9 6,7 5 3 15 8 SSE 0,0
07.12.2017 09:00:00 5,9 4,1 2 1 12 6 SE 0,0
07.12.2017 08:00:00 5,4 3,6 3 1 18 10 SE 0,0
07.12.2017 07:00:00 7,5 5,8 7 4 17 9 SSE -
07.12.2017 06:00:00 7,1 5,6 3 2 20 11 ESE 0,0
07.12.2017 05:00:00 5,1 3,6 3 2 11 6 SE 0,0
07.12.2017 04:00:00 0,0 -1,4 0 0 0 0 N 0,0
07.12.2017 03:00:00 -0,2 -1,7 0 0 0 0 N 0,0
07.12.2017 02:00:00 -0,8 -2,2 0 0 0 0 N 0,0
07.12.2017 01:00:00 -1,1 -2,5 0 0 0 0 N -
07.12.2017 00:00:00 -0,9 -2,2 0 0 0 0 N 0,0
06.12.2017 23:00:00 -0,7 -2,2 0 0 0 0 N 0,0
06.12.2017 22:00:00 -0,2 -1,7 0 0 0 0 N 0,0
06.12.2017 21:00:00 -0,1 -1,7 0 0 0 0 N 0,0
06.12.2017 20:00:00 0,6 -1,2 0 0 0 0 N 0,0
06.12.2017 19:00:00 1,6 -0,3 0 0 0 0 N -
06.12.2017 18:00:00 3,2 0,9 0 0 0 0 N 0,0
06.12.2017 17:00:00 4,7 2,1 0 0 1 1 N 0,0
06.12.2017 16:00:00 7,4 3,2 0 0 7 4 N 0,0
06.12.2017 15:00:00 10,6 3,8 1 1 9 5 S 0,0
06.12.2017 14:00:00 12,4 4,3 3 2 8 4 S 0,0
06.12.2017 13:00:00 11,9 7,4 1 0 5 3 SSE -
06.12.2017 12:00:00 5,8 4,3 0 0 0 0 N 0,0
06.12.2017 11:00:00 4,7 3,2 0 0 0 0 N 0,0
06.12.2017 10:00:00 4,3 2,9 0 0 0 0 N 0,0
06.12.2017 09:00:00 -1,3 -2,7 0 0 0 0 N 0,0
06.12.2017 08:00:00 -2,5 -3,9 0 0 0 0 N 0,0
06.12.2017 07:00:00 -2,7 -4,2 0 0 0 0 N -
06.12.2017 06:00:00 -2,7 -4,2 0 0 0 0 N 0,0
06.12.2017 05:00:00 -2,6 -4,2 0 0 0 0 N 0,0
06.12.2017 04:00:00 -2,6 -4,2 0 0 0 0 N 0,0
06.12.2017 03:00:00 -2,4 -3,9 0 0 0 0 N 0,0
06.12.2017 02:00:00 -2,1 -3,6 0 0 0 0 N 0,0
06.12.2017 01:00:00 -1,8 -3,3 0 0 0 0 N -
06.12.2017 00:00:00 -1,7 -3,0 0 0 0 0 N 0,0
05.12.2017 23:00:00 -1,0 -2,5 0 0 0 0 N 0,0
05.12.2017 22:00:00 -0,6 -2,2 0 0 0 0 N 0,0
05.12.2017 21:00:00 -0,4 -2,2 0 0 0 0 N 0,0
05.12.2017 20:00:00 0,3 -1,7 0 0 0 0 N 0,0
05.12.2017 19:00:00 1,5 -0,5 0 0 0 0 N -
05.12.2017 18:00:00 2,9 0,4 0 0 0 0 N 0,0
05.12.2017 17:00:00 4,8 1,9 0 0 0 0 N 0,0
05.12.2017 16:00:00 6,8 2,9 0 0 6 3 SE 0,0
05.12.2017 15:00:00 9,0 3,4 2 1 8 5 S 0,0
05.12.2017 14:00:00 9,2 3,0 0 0 10 6 N 0,0
05.12.2017 13:00:00 9,9 3,0 0 0 12 7 S -
05.12.2017 12:00:00 11,2 1,7 1 1 13 7 S 0,0
05.12.2017 11:00:00 11,2 3,8 2 1 13 7 SW 0,0
05.12.2017 10:00:00 7,2 5,6 0 0 0 0 N 0,0
05.12.2017 09:00:00 -0,3 -1,7 0 0 0 0 N 0,0
05.12.2017 08:00:00 -1,4 -2,7 0 0 0 0 N 0,0
05.12.2017 07:00:00 -0,9 -2,2 0 0 0 0 N -
05.12.2017 06:00:00 -0,3 -1,7 0 0 0 0 N 0,0

tt = Température de l'air
td = dewpoint
ff = Vitesse du vent
fx = gusts
dd = Direction du vent
rr = Quantités de précipitations

stations d'obs. à proximité